UMGG 251700Z 14005G08MPS 9999 OVC020 04/01 Q1021 NOSIG
QNH:(hPa/inHg/mmHg)1021 / 30.15 / 766
QFE:(hPa/inHg/mmHg)1004 / 29.63 / 753
Temperature4
Dew Point1
Visibility> 10000
Weather
Cloud CoverOVC (2000);
Transition Altitude6000 ft.
Transition LevelFL70
SQUAWK